sensor_id;sensor_type;location;lat;lon;timestamp;temperature;humidity
8313;DHT22;4194;43.408;24.626;2023-07-28T00:02:09;17.90;87.80
8313;DHT22;4194;43.408;24.626;2023-07-28T00:04:35;17.90;87.30
8313;DHT22;4194;43.408;24.626;2023-07-28T00:07:02;17.80;88.70
8313;DHT22;4194;43.408;24.626;2023-07-28T00:09:28;17.80;89.30
8313;DHT22;4194;43.408;24.626;2023-07-28T00:11:53;16.90;89.80
8313;DHT22;4194;43.408;24.626;2023-07-28T00:14:19;17.70;90.60
8313;DHT22;4194;43.408;24.626;2023-07-28T00:16:45;18.10;91.10
8313;DHT22;4194;43.408;24.626;2023-07-28T00:19:11;17.60;91.20
8313;DHT22;4194;43.408;24.626;2023-07-28T00:21:36;17.60;92.00
8313;DHT22;4194;43.408;24.626;2023-07-28T00:24:02;17.60;91.50
8313;DHT22;4194;43.408;24.626;2023-07-28T00:26:28;17.60;91.40
8313;DHT22;4194;43.408;24.626;2023-07-28T00:28:53;16.40;91.60
8313;DHT22;4194;43.408;24.626;2023-07-28T00:31:19;17.40;92.00
8313;DHT22;4194;43.408;24.626;2023-07-28T00:33:45;17.40;92.30
8313;DHT22;4194;43.408;24.626;2023-07-28T00:36:10;17.30;90.30
8313;DHT22;4194;43.408;24.626;2023-07-28T00:38:36;17.40;90.90
8313;DHT22;4194;43.408;24.626;2023-07-28T00:41:02;17.60;90.90
8313;DHT22;4194;43.408;24.626;2023-07-28T00:43:27;17.60;90.50
8313;DHT22;4194;43.408;24.626;2023-07-28T00:45:53;17.70;90.00
8313;DHT22;4194;43.408;24.626;2023-07-28T00:48:19;17.20;88.60
8313;DHT22;4194;43.408;24.626;2023-07-28T00:50:47;17.20;90.50
8313;DHT22;4194;43.408;24.626;2023-07-28T00:53:14;17.50;90.80
8313;DHT22;4194;43.408;24.626;2023-07-28T00:55:40;17.50;91.70
8313;DHT22;4194;43.408;24.626;2023-07-28T00:58:06;16.00;92.00
8313;DHT22;4194;43.408;24.626;2023-07-28T01:00:32;17.30;92.80
8313;DHT22;4194;43.408;24.626;2023-07-28T01:02:58;18.20;93.20
8313;DHT22;4194;43.408;24.626;2023-07-28T01:05:31;16.80;93.00
8313;DHT22;4194;43.408;24.626;2023-07-28T01:08:11;17.20;93.10
8313;DHT22;4194;43.408;24.626;2023-07-28T01:10:42;17.20;92.50
8313;DHT22;4194;43.408;24.626;2023-07-28T01:13:08;17.60;93.80
8313;DHT22;4194;43.408;24.626;2023-07-28T01:15:34;17.00;92.90
8313;DHT22;4194;43.408;24.626;2023-07-28T01:18:00;17.10;93.30
8313;DHT22;4194;43.408;24.626;2023-07-28T01:20:29;17.10;93.40
8313;DHT22;4194;43.408;24.626;2023-07-28T01:23:08;16.90;93.10
8313;DHT22;4194;43.408;24.626;2023-07-28T01:25:48;16.90;93.40
8313;DHT22;4194;43.408;24.626;2023-07-28T01:28:18;16.80;93.90
8313;DHT22;4194;43.408;24.626;2023-07-28T01:30:45;17.30;93.90
8313;DHT22;4194;43.408;24.626;2023-07-28T01:33:11;16.60;93.80
8313;DHT22;4194;43.408;24.626;2023-07-28T01:35:37;16.70;94.20
8313;DHT22;4194;43.408;24.626;2023-07-28T01:38:04;17.40;94.70
8313;DHT22;4194;43.408;24.626;2023-07-28T01:40:30;16.60;94.60
8313;DHT22;4194;43.408;24.626;2023-07-28T01:42:55;16.60;94.20
8313;DHT22;4194;43.408;24.626;2023-07-28T01:45:21;16.60;94.60
8313;DHT22;4194;43.408;24.626;2023-07-28T01:47:47;16.60;94.60
8313;DHT22;4194;43.408;24.626;2023-07-28T01:50:12;16.60;95.30
8313;DHT22;4194;43.408;24.626;2023-07-28T01:52:38;16.60;95.40
8313;DHT22;4194;43.408;24.626;2023-07-28T01:55:04;16.50;95.40
8313;DHT22;4194;43.408;24.626;2023-07-28T01:57:33;17.40;95.70
8313;DHT22;4194;43.408;24.626;2023-07-28T01:59:59;16.50;95.70
8313;DHT22;4194;43.408;24.626;2023-07-28T02:02:25;16.40;95.50
8313;DHT22;4194;43.408;24.626;2023-07-28T02:04:51;16.20;96.00
8313;DHT22;4194;43.408;24.626;2023-07-28T02:07:16;16.40;95.50
8313;DHT22;4194;43.408;24.626;2023-07-28T02:09:42;16.40;95.90
8313;DHT22;4194;43.408;24.626;2023-07-28T02:12:08;17.40;95.60
8313;DHT22;4194;43.408;24.626;2023-07-28T02:14:34;15.10;95.00
8313;DHT22;4194;43.408;24.626;2023-07-28T02:16:59;16.50;96.00
8313;DHT22;4194;43.408;24.626;2023-07-28T02:19:26;16.40;97.40
8313;DHT22;4194;43.408;24.626;2023-07-28T02:21:52;16.30;97.70
8313;DHT22;4194;43.408;24.626;2023-07-28T02:24:17;16.20;97.30
8313;DHT22;4194;43.408;24.626;2023-07-28T02:26:43;16.20;95.90
8313;DHT22;4194;43.408;24.626;2023-07-28T02:29:09;16.20;96.20
8313;DHT22;4194;43.408;24.626;2023-07-28T02:31:34;16.20;96.10
8313;DHT22;4194;43.408;24.626;2023-07-28T02:34:00;16.30;96.50
8313;DHT22;4194;43.408;24.626;2023-07-28T02:36:25;16.00;96.60
8313;DHT22;4194;43.408;24.626;2023-07-28T02:38:51;16.00;97.20
8313;DHT22;4194;43.408;24.626;2023-07-28T02:41:17;15.20;97.60
8313;DHT22;4194;43.408;24.626;2023-07-28T02:43:43;17.30;99.00
8313;DHT22;4194;43.408;24.626;2023-07-28T02:46:08;16.10;98.90
8313;DHT22;4194;43.408;24.626;2023-07-28T02:48:34;17.30;99.40
8313;DHT22;4194;43.408;24.626;2023-07-28T02:50:59;16.10;99.20
8313;DHT22;4194;43.408;24.626;2023-07-28T02:53:25;16.10;99.90
8313;DHT22;4194;43.408;24.626;2023-07-28T02:55:51;16.20;99.90
8313;DHT22;4194;43.408;24.626;2023-07-28T02:58:16;16.40;99.70
8313;DHT22;4194;43.408;24.626;2023-07-28T03:00:43;16.00;99.80
8313;DHT22;4194;43.408;24.626;2023-07-28T03:03:11;15.90;98.90
8313;DHT22;4194;43.408;24.626;2023-07-28T03:05:38;15.90;99.20
8313;DHT22;4194;43.408;24.626;2023-07-28T03:08:04;15.60;99.90
8313;DHT22;4194;43.408;24.626;2023-07-28T03:10:30;15.90;99.90
8313;DHT22;4194;43.408;24.626;2023-07-28T03:12:56;16.60;99.90
8313;DHT22;4194;43.408;24.626;2023-07-28T03:15:22;14.90;99.90
8313;DHT22;4194;43.408;24.626;2023-07-28T03:17:49;16.60;99.90
8313;DHT22;4194;43.408;24.626;2023-07-28T03:20:15;15.90;99.90
8313;DHT22;4194;43.408;24.626;2023-07-28T03:25:07;15.90;99.90
8313;DHT22;4194;43.408;24.626;2023-07-28T03:27:32;16.10;99.00
8313;DHT22;4194;43.408;24.626;2023-07-28T03:29:58;16.00;99.60
8313;DHT22;4194;43.408;24.626;2023-07-28T03:32:24;16.00;99.90
8313;DHT22;4194;43.408;24.626;2023-07-28T03:34:50;16.80;99.90
8313;DHT22;4194;43.408;24.626;2023-07-28T03:37:16;16.00;99.90
8313;DHT22;4194;43.408;24.626;2023-07-28T03:39:41;16.10;99.90
8313;DHT22;4194;43.408;24.626;2023-07-28T03:42:07;16.10;99.90
8313;DHT22;4194;43.408;24.626;2023-07-28T03:44:33;15.20;99.40
8313;DHT22;4194;43.408;24.626;2023-07-28T03:46:59;16.10;99.90
8313;DHT22;4194;43.408;24.626;2023-07-28T03:49:25;16.20;99.00
8313;DHT22;4194;43.408;24.626;2023-07-28T03:51:51;16.10;99.20
8313;DHT22;4194;43.408;24.626;2023-07-28T03:54:16;16.20;99.70
8313;DHT22;4194;43.408;24.626;2023-07-28T03:56:42;16.10;99.00
8313;DHT22;4194;43.408;24.626;2023-07-28T03:59:07;16.30;99.30
8313;DHT22;4194;43.408;24.626;2023-07-28T04:01:33;17.20;97.90
8313;DHT22;4194;43.408;24.626;2023-07-28T04:03:59;16.80;97.10
8313;DHT22;4194;43.408;24.626;2023-07-28T04:06:48;16.50;97.60
8313;DHT22;4194;43.408;24.626;2023-07-28T04:09:19;16.60;97.30
8313;DHT22;4194;43.408;24.626;2023-07-28T04:11:45;16.60;97.60
8313;DHT22;4194;43.408;24.626;2023-07-28T04:14:11;16.70;98.40
8313;DHT22;4194;43.408;24.626;2023-07-28T04:16:37;17.80;96.60
8313;DHT22;4194;43.408;24.626;2023-07-28T04:19:03;16.90;96.50
8313;DHT22;4194;43.408;24.626;2023-07-28T04:21:28;17.00;96.40
8313;DHT22;4194;43.408;24.626;2023-07-28T04:23:54;16.20;94.20
8313;DHT22;4194;43.408;24.626;2023-07-28T04:26:20;18.40;95.40
8313;DHT22;4194;43.408;24.626;2023-07-28T04:28:46;17.40;95.20
8313;DHT22;4194;43.408;24.626;2023-07-28T04:31:12;18.00;95.20
8313;DHT22;4194;43.408;24.626;2023-07-28T04:33:40;17.50;95.20
8313;DHT22;4194;43.408;24.626;2023-07-28T04:36:06;17.80;95.40
8313;DHT22;4194;43.408;24.626;2023-07-28T04:38:32;18.90;94.30
8313;DHT22;4194;43.408;24.626;2023-07-28T04:40:57;17.90;93.90
8313;DHT22;4194;43.408;24.626;2023-07-28T04:43:23;18.10;93.30
8313;DHT22;4194;43.408;24.626;2023-07-28T04:45:49;18.30;93.00
8313;DHT22;4194;43.408;24.626;2023-07-28T04:48:14;18.30;91.90
8313;DHT22;4194;43.408;24.626;2023-07-28T04:50:40;18.40;92.20
8313;DHT22;4194;43.408;24.626;2023-07-28T04:53:06;19.90;91.60
8313;DHT22;4194;43.408;24.626;2023-07-28T04:55:31;18.20;90.00
8313;DHT22;4194;43.408;24.626;2023-07-28T04:57:57;19.90;91.00
8313;DHT22;4194;43.408;24.626;2023-07-28T05:00:23;19.00;90.60
8313;DHT22;4194;43.408;24.626;2023-07-28T05:02:49;19.50;90.30
8313;DHT22;4194;43.408;24.626;2023-07-28T05:05:14;18.60;89.90
8313;DHT22;4194;43.408;24.626;2023-07-28T05:07:40;18.70;90.20
8313;DHT22;4194;43.408;24.626;2023-07-28T05:10:07;18.20;88.20
8313;DHT22;4194;43.408;24.626;2023-07-28T05:12:33;19.50;89.50
8313;DHT22;4194;43.408;24.626;2023-07-28T05:14:59;19.50;88.60
8313;DHT22;4194;43.408;24.626;2023-07-28T05:17:24;18.80;86.60
8313;DHT22;4194;43.408;24.626;2023-07-28T05:19:50;21.00;87.70
8313;DHT22;4194;43.408;24.626;2023-07-28T05:22:16;19.80;87.30
8313;DHT22;4194;43.408;24.626;2023-07-28T05:24:42;20.00;86.90
8313;DHT22;4194;43.408;24.626;2023-07-28T05:27:09;20.30;87.70
8313;DHT22;4194;43.408;24.626;2023-07-28T05:29:35;20.40;83.30
8313;DHT22;4194;43.408;24.626;2023-07-28T05:32:00;20.40;83.10
8313;DHT22;4194;43.408;24.626;2023-07-28T05:34:26;19.80;82.30
8313;DHT22;4194;43.408;24.626;2023-07-28T05:36:52;22.00;83.20
8313;DHT22;4194;43.408;24.626;2023-07-28T05:39:17;22.00;80.90
8313;DHT22;4194;43.408;24.626;2023-07-28T05:41:43;22.20;80.90
8313;DHT22;4194;43.408;24.626;2023-07-28T05:44:09;21.30;80.90
8313;DHT22;4194;43.408;24.626;2023-07-28T05:46:34;21.30;78.00
8313;DHT22;4194;43.408;24.626;2023-07-28T05:49:00;22.30;79.00
8313;DHT22;4194;43.408;24.626;2023-07-28T05:51:26;21.50;78.60
8313;DHT22;4194;43.408;24.626;2023-07-28T05:53:51;22.60;77.00
8313;DHT22;4194;43.408;24.626;2023-07-28T05:56:17;21.60;76.70
8313;DHT22;4194;43.408;24.626;2023-07-28T05:58:46;21.70;77.00
8313;DHT22;4194;43.408;24.626;2023-07-28T06:01:12;22.60;74.30
8313;DHT22;4194;43.408;24.626;2023-07-28T06:03:38;21.80;74.40
8313;DHT22;4194;43.408;24.626;2023-07-28T06:06:04;22.10;73.50
8313;DHT22;4194;43.408;24.626;2023-07-28T06:08:30;21.90;73.80
8313;DHT22;4194;43.408;24.626;2023-07-28T06:10:55;21.90;73.50
8313;DHT22;4194;43.408;24.626;2023-07-28T06:13:21;22.00;74.00
8313;DHT22;4194;43.408;24.626;2023-07-28T06:15:47;22.10;73.20
8313;DHT22;4194;43.408;24.626;2023-07-28T06:18:13;22.00;73.10
8313;DHT22;4194;43.408;24.626;2023-07-28T06:20:42;22.20;73.40
8313;DHT22;4194;43.408;24.626;2023-07-28T06:23:08;22.40;72.40
8313;DHT22;4194;43.408;24.626;2023-07-28T06:25:37;22.50;71.60
8313;DHT22;4194;43.408;24.626;2023-07-28T06:28:09;22.50;67.80
8313;DHT22;4194;43.408;24.626;2023-07-28T06:30:35;22.50;68.50
8313;DHT22;4194;43.408;24.626;2023-07-28T06:33:00;22.20;69.00
8313;DHT22;4194;43.408;24.626;2023-07-28T06:35:26;22.60;69.20
8313;DHT22;4194;43.408;24.626;2023-07-28T06:40:18;22.70;69.00
8313;DHT22;4194;43.408;24.626;2023-07-28T06:42:44;22.80;66.10
8313;DHT22;4194;43.408;24.626;2023-07-28T06:45:10;22.90;67.20
8313;DHT22;4194;43.408;24.626;2023-07-28T06:47:35;22.90;67.90
8313;DHT22;4194;43.408;24.626;2023-07-28T06:50:01;23.40;66.10
8313;DHT22;4194;43.408;24.626;2023-07-28T06:52:27;23.00;66.50
8313;DHT22;4194;43.408;24.626;2023-07-28T06:54:52;23.60;66.20
8313;DHT22;4194;43.408;24.626;2023-07-28T06:57:20;23.10;66.40
8313;DHT22;4194;43.408;24.626;2023-07-28T06:59:45;23.70;66.00
8313;DHT22;4194;43.408;24.626;2023-07-28T07:02:11;23.60;66.70
8313;DHT22;4194;43.408;24.626;2023-07-28T07:04:37;23.60;63.80
8313;DHT22;4194;43.408;24.626;2023-07-28T07:07:02;24.00;64.90
8313;DHT22;4194;43.408;24.626;2023-07-28T07:09:28;23.90;64.30
8313;DHT22;4194;43.408;24.626;2023-07-28T07:11:54;23.80;65.00
8313;DHT22;4194;43.408;24.626;2023-07-28T07:14:20;23.90;65.20
8313;DHT22;4194;43.408;24.626;2023-07-28T07:16:46;24.20;63.20
8313;DHT22;4194;43.408;24.626;2023-07-28T07:19:12;24.00;63.80
8313;DHT22;4194;43.408;24.626;2023-07-28T07:21:38;24.20;63.50
8313;DHT22;4194;43.408;24.626;2023-07-28T07:24:04;24.10;63.60
8313;DHT22;4194;43.408;24.626;2023-07-28T07:26:30;24.30;63.50
8313;DHT22;4194;43.408;24.626;2023-07-28T07:28:56;24.40;62.80
8313;DHT22;4194;43.408;24.626;2023-07-28T07:31:22;24.20;62.90
8313;DHT22;4194;43.408;24.626;2023-07-28T07:33:49;24.40;63.00
8313;DHT22;4194;43.408;24.626;2023-07-28T07:36:16;24.30;60.80
8313;DHT22;4194;43.408;24.626;2023-07-28T07:38:43;24.30;61.50
8313;DHT22;4194;43.408;24.626;2023-07-28T07:41:12;24.30;62.70
8313;DHT22;4194;43.408;24.626;2023-07-28T07:43:39;24.50;61.70
8313;DHT22;4194;43.408;24.626;2023-07-28T07:46:04;24.70;62.00
8313;DHT22;4194;43.408;24.626;2023-07-28T07:48:30;24.80;59.30
8313;DHT22;4194;43.408;24.626;2023-07-28T07:50:56;24.70;58.70
8313;DHT22;4194;43.408;24.626;2023-07-28T07:53:22;24.60;58.90
8313;DHT22;4194;43.408;24.626;2023-07-28T07:55:48;24.90;59.10
8313;DHT22;4194;43.408;24.626;2023-07-28T07:58:14;24.90;58.10
8313;DHT22;4194;43.408;24.626;2023-07-28T08:00:40;24.90;59.00
8313;DHT22;4194;43.408;24.626;2023-07-28T08:03:06;25.00;59.30
8313;DHT22;4194;43.408;24.626;2023-07-28T08:05:32;25.20;59.00
8313;DHT22;4194;43.408;24.626;2023-07-28T08:07:57;25.20;57.70
8313;DHT22;4194;43.408;24.626;2023-07-28T08:10:23;25.20;57.90
8313;DHT22;4194;43.408;24.626;2023-07-28T08:12:49;25.10;58.40
8313;DHT22;4194;43.408;24.626;2023-07-28T08:15:15;25.20;58.10
8313;DHT22;4194;43.408;24.626;2023-07-28T08:17:41;25.20;56.00
8313;DHT22;4194;43.408;24.626;2023-07-28T08:20:07;25.20;56.20
8313;DHT22;4194;43.408;24.626;2023-07-28T08:22:33;25.30;54.00
8313;DHT22;4194;43.408;24.626;2023-07-28T08:24:59;25.30;54.80
8313;DHT22;4194;43.408;24.626;2023-07-28T08:27:24;25.50;56.10
8313;DHT22;4194;43.408;24.626;2023-07-28T08:29:50;25.40;55.40
8313;DHT22;4194;43.408;24.626;2023-07-28T08:32:16;25.50;56.60
8313;DHT22;4194;43.408;24.626;2023-07-28T08:34:42;25.60;57.00
8313;DHT22;4194;43.408;24.626;2023-07-28T08:37:08;25.70;56.80
8313;DHT22;4194;43.408;24.626;2023-07-28T08:39:34;25.90;54.80
8313;DHT22;4194;43.408;24.626;2023-07-28T08:42:03;25.80;55.00
8313;DHT22;4194;43.408;24.626;2023-07-28T08:44:32;26.00;56.20
8313;DHT22;4194;43.408;24.626;2023-07-28T08:47:02;26.00;56.20
8313;DHT22;4194;43.408;24.626;2023-07-28T08:49:30;26.30;55.40
8313;DHT22;4194;43.408;24.626;2023-07-28T08:51:59;26.40;55.20
8313;DHT22;4194;43.408;24.626;2023-07-28T08:54:25;26.50;55.40
8313;DHT22;4194;43.408;24.626;2023-07-28T08:56:51;26.50;54.90
8313;DHT22;4194;43.408;24.626;2023-07-28T08:59:29;26.40;53.30
8313;DHT22;4194;43.408;24.626;2023-07-28T09:01:57;26.50;53.80
8313;DHT22;4194;43.408;24.626;2023-07-28T09:04:27;26.20;54.00
8313;DHT22;4194;43.408;24.626;2023-07-28T09:06:53;26.10;54.70
8313;DHT22;4194;43.408;24.626;2023-07-28T09:09:21;26.50;55.80
8313;DHT22;4194;43.408;24.626;2023-07-28T09:11:54;26.60;54.70
8313;DHT22;4194;43.408;24.626;2023-07-28T09:14:21;26.90;54.00
8313;DHT22;4194;43.408;24.626;2023-07-28T09:16:49;27.20;53.20
8313;DHT22;4194;43.408;24.626;2023-07-28T09:19:15;27.30;51.10
8313;DHT22;4194;43.408;24.626;2023-07-28T09:21:43;27.00;51.90
8313;DHT22;4194;43.408;24.626;2023-07-28T09:24:11;26.90;51.20
8313;DHT22;4194;43.408;24.626;2023-07-28T09:26:44;27.00;51.40
8313;DHT22;4194;43.408;24.626;2023-07-28T09:29:20;27.30;50.60
8313;DHT22;4194;43.408;24.626;2023-07-28T09:31:49;27.20;50.50
8313;DHT22;4194;43.408;24.626;2023-07-28T09:34:26;27.30;51.10
8313;DHT22;4194;43.408;24.626;2023-07-28T09:36:56;27.40;51.60
8313;DHT22;4194;43.408;24.626;2023-07-28T09:39:23;27.70;50.50
8313;DHT22;4194;43.408;24.626;2023-07-28T09:41:49;27.90;49.40
8313;DHT22;4194;43.408;24.626;2023-07-28T09:44:15;27.80;50.60
8313;DHT22;4194;43.408;24.626;2023-07-28T09:49:15;28.00;50.60
8313;DHT22;4194;43.408;24.626;2023-07-28T09:51:45;27.90;49.80
8313;DHT22;4194;43.408;24.626;2023-07-28T09:54:20;28.30;50.50
8313;DHT22;4194;43.408;24.626;2023-07-28T09:56:56;28.40;48.20
8313;DHT22;4194;43.408;24.626;2023-07-28T09:59:28;28.40;47.70
8313;DHT22;4194;43.408;24.626;2023-07-28T10:01:56;28.40;47.80
8313;DHT22;4194;43.408;24.626;2023-07-28T10:04:22;28.20;47.30
8313;DHT22;4194;43.408;24.626;2023-07-28T10:06:48;28.20;47.80
8313;DHT22;4194;43.408;24.626;2023-07-28T10:09:14;28.00;48.20
8313;DHT22;4194;43.408;24.626;2023-07-28T10:11:42;28.30;48.70
8313;DHT22;4194;43.408;24.626;2023-07-28T10:14:08;28.60;47.70
8313;DHT22;4194;43.408;24.626;2023-07-28T10:16:40;28.70;49.20
8313;DHT22;4194;43.408;24.626;2023-07-28T10:19:06;28.90;47.70
8313;DHT22;4194;43.408;24.626;2023-07-28T10:21:31;29.10;46.60
8313;DHT22;4194;43.408;24.626;2023-07-28T10:24:04;29.10;43.40
8313;DHT22;4194;43.408;24.626;2023-07-28T10:26:39;29.30;45.50
8313;DHT22;4194;43.408;24.626;2023-07-28T10:29:15;29.20;44.10
8313;DHT22;4194;43.408;24.626;2023-07-28T10:31:54;29.10;44.90
8313;DHT22;4194;43.408;24.626;2023-07-28T10:34:23;29.00;44.70
8313;DHT22;4194;43.408;24.626;2023-07-28T10:36:58;29.10;44.30
8313;DHT22;4194;43.408;24.626;2023-07-28T10:39:27;29.90;46.10
8313;DHT22;4194;43.408;24.626;2023-07-28T10:42:03;30.60;45.30
8313;DHT22;4194;43.408;24.626;2023-07-28T10:44:29;31.20;44.30
8313;DHT22;4194;43.408;24.626;2023-07-28T10:46:55;31.90;42.90
8313;DHT22;4194;43.408;24.626;2023-07-28T10:49:22;32.40;41.90
8313;DHT22;4194;43.408;24.626;2023-07-28T10:51:49;32.50;39.00
8313;DHT22;4194;43.408;24.626;2023-07-28T10:54:15;32.50;39.80
8313;DHT22;4194;43.408;24.626;2023-07-28T10:56:45;32.50;38.50
8313;DHT22;4194;43.408;24.626;2023-07-28T10:59:11;33.00;40.70
8313;DHT22;4194;43.408;24.626;2023-07-28T11:01:39;33.50;38.80
8313;DHT22;4194;43.408;24.626;2023-07-28T11:04:16;33.90;38.90
8313;DHT22;4194;43.408;24.626;2023-07-28T11:06:43;34.20;37.90
8313;DHT22;4194;43.408;24.626;2023-07-28T11:09:10;34.50;37.00
8313;DHT22;4194;43.408;24.626;2023-07-28T11:11:37;34.30;35.70
8313;DHT22;4194;43.408;24.626;2023-07-28T11:14:05;34.20;35.40
8313;DHT22;4194;43.408;24.626;2023-07-28T11:16:40;34.00;35.70
8313;DHT22;4194;43.408;24.626;2023-07-28T11:19:11;33.70;36.00
8313;DHT22;4194;43.408;24.626;2023-07-28T11:21:40;33.90;37.00
8313;DHT22;4194;43.408;24.626;2023-07-28T11:24:10;34.40;36.70
8313;DHT22;4194;43.408;24.626;2023-07-28T11:26:37;34.50;35.90
8313;DHT22;4194;43.408;24.626;2023-07-28T11:29:04;34.70;36.70
8313;DHT22;4194;43.408;24.626;2023-07-28T11:31:30;35.20;34.80
8313;DHT22;4194;43.408;24.626;2023-07-28T11:33:55;35.60;35.00
8313;DHT22;4194;43.408;24.626;2023-07-28T11:36:29;35.20;35.20
8313;DHT22;4194;43.408;24.626;2023-07-28T11:38:57;35.10;35.60
8313;DHT22;4194;43.408;24.626;2023-07-28T11:41:23;35.30;35.50
8313;DHT22;4194;43.408;24.626;2023-07-28T11:43:51;35.70;36.20
8313;DHT22;4194;43.408;24.626;2023-07-28T11:46:36;36.20;34.60
8313;DHT22;4194;43.408;24.626;2023-07-28T11:49:18;35.50;33.70
8313;DHT22;4194;43.408;24.626;2023-07-28T11:51:49;35.40;34.60
8313;DHT22;4194;43.408;24.626;2023-07-28T11:54:16;35.30;34.00
8313;DHT22;4194;43.408;24.626;2023-07-28T11:56:43;35.30;35.00
8313;DHT22;4194;43.408;24.626;2023-07-28T11:59:10;35.20;34.20
8313;DHT22;4194;43.408;24.626;2023-07-28T12:04:30;35.80;34.10
8313;DHT22;4194;43.408;24.626;2023-07-28T12:12:15;35.90;33.30
8313;DHT22;4194;43.408;24.626;2023-07-28T12:14:41;36.20;34.10
8313;DHT22;4194;43.408;24.626;2023-07-28T12:17:14;36.50;32.70
8313;DHT22;4194;43.408;24.626;2023-07-28T12:19:55;36.70;30.40
8313;DHT22;4194;43.408;24.626;2023-07-28T12:22:21;36.80;31.10
8313;DHT22;4194;43.408;24.626;2023-07-28T12:24:47;36.80;31.20
8313;DHT22;4194;43.408;24.626;2023-07-28T12:27:12;37.30;30.80
8313;DHT22;4194;43.408;24.626;2023-07-28T12:29:39;37.50;30.30
8313;DHT22;4194;43.408;24.626;2023-07-28T12:32:05;38.40;30.10
8313;DHT22;4194;43.408;24.626;2023-07-28T12:34:30;38.90;29.60
8313;DHT22;4194;43.408;24.626;2023-07-28T12:36:56;39.10;29.70
8313;DHT22;4194;43.408;24.626;2023-07-28T12:39:22;39.20;29.30
8313;DHT22;4194;43.408;24.626;2023-07-28T12:41:49;39.00;29.40
8313;DHT22;4194;43.408;24.626;2023-07-28T12:44:19;39.10;29.40
8313;DHT22;4194;43.408;24.626;2023-07-28T12:46:45;39.30;29.10
8313;DHT22;4194;43.408;24.626;2023-07-28T12:49:11;40.20;29.10
8313;DHT22;4194;43.408;24.626;2023-07-28T12:51:37;41.10;29.70
8313;DHT22;4194;43.408;24.626;2023-07-28T12:54:03;41.20;28.70
8313;DHT22;4194;43.408;24.626;2023-07-28T12:56:29;41.60;28.40
8313;DHT22;4194;43.408;24.626;2023-07-28T12:58:55;41.40;28.50
8313;DHT22;4194;43.408;24.626;2023-07-28T13:01:21;41.70;27.80
8313;DHT22;4194;43.408;24.626;2023-07-28T13:03:46;42.00;28.70
8313;DHT22;4194;43.408;24.626;2023-07-28T13:06:12;42.50;28.60
8313;DHT22;4194;43.408;24.626;2023-07-28T13:08:38;42.30;27.80
8313;DHT22;4194;43.408;24.626;2023-07-28T13:11:04;42.10;28.20
8313;DHT22;4194;43.408;24.626;2023-07-28T13:13:30;42.60;28.60
8313;DHT22;4194;43.408;24.626;2023-07-28T13:15:56;43.10;28.50
8313;DHT22;4194;43.408;24.626;2023-07-28T13:18:24;43.10;28.60
8313;DHT22;4194;43.408;24.626;2023-07-28T13:20:50;43.20;27.90
8313;DHT22;4194;43.408;24.626;2023-07-28T13:23:16;43.60;27.70
8313;DHT22;4194;43.408;24.626;2023-07-28T13:25:42;43.90;27.60
8313;DHT22;4194;43.408;24.626;2023-07-28T13:28:08;43.90;28.60
8313;DHT22;4194;43.408;24.626;2023-07-28T13:30:33;44.70;27.80
8313;DHT22;4194;43.408;24.626;2023-07-28T13:32:59;44.70;27.40
8313;DHT22;4194;43.408;24.626;2023-07-28T13:35:26;43.50;27.10
8313;DHT22;4194;43.408;24.626;2023-07-28T13:37:51;44.10;27.00
8313;DHT22;4194;43.408;24.626;2023-07-28T13:40:17;45.40;27.60
8313;DHT22;4194;43.408;24.626;2023-07-28T13:42:42;45.80;26.80
8313;DHT22;4194;43.408;24.626;2023-07-28T13:45:09;46.10;25.90
8313;DHT22;4194;43.408;24.626;2023-07-28T13:47:35;46.90;26.40
8313;DHT22;4194;43.408;24.626;2023-07-28T13:50:00;47.30;26.60
8313;DHT22;4194;43.408;24.626;2023-07-28T13:52:26;46.90;25.90
8313;DHT22;4194;43.408;24.626;2023-07-28T13:54:52;46.50;25.80
8313;DHT22;4194;43.408;24.626;2023-07-28T13:57:18;47.30;26.00
8313;DHT22;4194;43.408;24.626;2023-07-28T13:59:43;47.20;25.50
8313;DHT22;4194;43.408;24.626;2023-07-28T14:02:09;46.50;25.50
8313;DHT22;4194;43.408;24.626;2023-07-28T14:04:35;46.40;25.20
8313;DHT22;4194;43.408;24.626;2023-07-28T14:07:00;47.20;25.30
8313;DHT22;4194;43.408;24.626;2023-07-28T14:09:26;47.50;25.40
8313;DHT22;4194;43.408;24.626;2023-07-28T14:11:52;47.50;25.20
8313;DHT22;4194;43.408;24.626;2023-07-28T14:14:17;48.20;25.20
8313;DHT22;4194;43.408;24.626;2023-07-28T14:16:43;47.20;25.00
8313;DHT22;4194;43.408;24.626;2023-07-28T14:19:09;47.70;25.10
8313;DHT22;4194;43.408;24.626;2023-07-28T14:21:34;48.30;24.70
8313;DHT22;4194;43.408;24.626;2023-07-28T14:24:04;48.50;24.80
8313;DHT22;4194;43.408;24.626;2023-07-28T14:26:30;48.70;24.60
8313;DHT22;4194;43.408;24.626;2023-07-28T14:28:56;48.80;24.70
8313;DHT22;4194;43.408;24.626;2023-07-28T14:31:21;48.80;25.90
8313;DHT22;4194;43.408;24.626;2023-07-28T14:33:47;49.20;24.70
8313;DHT22;4194;43.408;24.626;2023-07-28T14:36:13;48.50;25.00
8313;DHT22;4194;43.408;24.626;2023-07-28T14:38:39;49.20;25.00
8313;DHT22;4194;43.408;24.626;2023-07-28T14:41:04;48.50;25.30
8313;DHT22;4194;43.408;24.626;2023-07-28T14:43:30;48.60;25.10
8313;DHT22;4194;43.408;24.626;2023-07-28T14:45:55;48.20;24.90
8313;DHT22;4194;43.408;24.626;2023-07-28T14:48:21;48.30;25.00
8313;DHT22;4194;43.408;24.626;2023-07-28T14:50:47;48.30;25.40
8313;DHT22;4194;43.408;24.626;2023-07-28T14:53:36;48.20;25.00
8313;DHT22;4194;43.408;24.626;2023-07-28T14:56:04;48.00;25.40
8313;DHT22;4194;43.408;24.626;2023-07-28T14:58:30;48.50;25.30
8313;DHT22;4194;43.408;24.626;2023-07-28T15:00:56;48.20;25.00
8313;DHT22;4194;43.408;24.626;2023-07-28T15:03:25;48.30;24.90
8313;DHT22;4194;43.408;24.626;2023-07-28T15:05:50;49.10;24.70
8313;DHT22;4194;43.408;24.626;2023-07-28T15:08:16;49.60;24.60
8313;DHT22;4194;43.408;24.626;2023-07-28T15:10:42;49.60;24.80
8313;DHT22;4194;43.408;24.626;2023-07-28T15:13:08;49.90;24.40
8313;DHT22;4194;43.408;24.626;2023-07-28T15:15:33;49.90;25.60
8313;DHT22;4194;43.408;24.626;2023-07-28T15:17:59;50.00;24.70
8313;DHT22;4194;43.408;24.626;2023-07-28T15:20:25;50.00;24.90
8313;DHT22;4194;43.408;24.626;2023-07-28T15:22:51;49.50;24.60
8313;DHT22;4194;43.408;24.626;2023-07-28T15:25:16;49.50;25.30
8313;DHT22;4194;43.408;24.626;2023-07-28T15:27:42;49.60;24.80
8313;DHT22;4194;43.408;24.626;2023-07-28T15:30:11;49.60;24.80
8313;DHT22;4194;43.408;24.626;2023-07-28T15:32:37;49.50;25.50
8313;DHT22;4194;43.408;24.626;2023-07-28T15:35:04;49.70;25.20
8313;DHT22;4194;43.408;24.626;2023-07-28T15:37:30;50.10;25.20
8313;DHT22;4194;43.408;24.626;2023-07-28T15:39:56;50.20;24.50
8313;DHT22;4194;43.408;24.626;2023-07-28T15:42:24;49.70;24.50
8313;DHT22;4194;43.408;24.626;2023-07-28T15:44:50;48.80;25.70
8313;DHT22;4194;43.408;24.626;2023-07-28T15:47:18;48.80;24.90
8313;DHT22;4194;43.408;24.626;2023-07-28T15:49:44;48.00;25.00
8313;DHT22;4194;43.408;24.626;2023-07-28T15:52:10;47.00;25.90
8313;DHT22;4194;43.408;24.626;2023-07-28T15:54:35;47.40;26.80
8313;DHT22;4194;43.408;24.626;2023-07-28T15:57:01;47.60;25.60
8313;DHT22;4194;43.408;24.626;2023-07-28T15:59:29;47.60;26.50